Time;durP1;ratioP1;P1;durP2;ratioP2;P2;SDS_P1;SDS_P2;PMS_P1;PMS_P2;Temp;Humidity;BMP_temperature;BMP_pressure;BME280_temperature;BME280_humidity;BME280_pressure;Samples;Min_cycle;Max_cycle;Signal;HPM_P1;HPM_P2
2024/01/31 09:16:33;;;;;;;;;;;;;;;;;;1035161;23;21423;-91
2024/01/31 09:19:00;;;;;;;38.00;21.27;;;;;;;;;;4953790;28;19969;-92
2024/01/31 09:21:26;;;;;;;41.38;21.48;;;;;;;;;;4936458;29;20358;-93
2024/01/31 09:23:53;;;;;;;41.47;23.17;;;;;;;;;;4930676;29;20303;-92
2024/01/31 09:26:19;;;;;;;37.53;21.52;;;;;;;;;;4923916;29;20019;-92
2024/01/31 09:28:45;;;;;;;40.10;23.75;;;;;;;;;;4923978;29;20024;-93
2024/01/31 09:31:11;;;;;;;42.17;23.73;;;;;;;;;;4940207;29;20028;-92
2024/01/31 09:33:37;;;;;;;34.83;20.95;;;;;;;;;;4924110;29;20035;-93
2024/01/31 09:36:03;;;;;;;43.33;23.52;;;;;;;;;;4940646;29;20032;-94
2024/01/31 09:38:29;;;;;;;41.33;23.85;;;;;;;;;;4940713;29;20078;-94
2024/01/31 09:40:56;;;;;;;36.80;20.92;;;;;;;;;;4940307;29;20031;-95
2024/01/31 09:43:22;;;;;;;30.98;19.40;;;;;;;;;;4923795;29;20327;-93
2024/01/31 09:45:50;;;;;;;36.60;20.77;;;;;;;;;;4936584;29;20028;-95
2024/01/31 09:48:18;;;;;;;31.98;19.42;;;;;;;;;;4940629;29;20028;-95
2024/01/31 09:50:44;;;;;;;33.67;19.80;;;;;;;;;;4923432;29;20039;-94
2024/01/31 09:53:11;;;;;;;32.25;19.73;;;;;;;;;;4924589;29;20027;-94
2024/01/31 09:55:38;;;;;;;33.22;20.52;;;;;;;;;;4924294;29;20055;-94
2024/01/31 09:58:16;;;;;;;34.42;19.77;;;;;;;;;;4939033;29;20119;-94
2024/01/31 10:00:43;;;;;;;39.70;20.67;;;;;;;;;;4920497;29;20122;-94
2024/01/31 10:03:09;;;;;;;34.90;20.55;;;;;;;;;;4916291;29;20027;-94
2024/01/31 10:05:41;;;;;;;35.35;21.00;;;;;;;;;;4942023;29;20024;-94
2024/01/31 10:08:07;;;;;;;41.92;22.95;;;;;;;;;;4924882;29;20056;-95
2024/01/31 10:10:33;;;;;;;36.85;20.75;;;;;;;;;;4941561;29;20047;-96
2024/01/31 10:13:00;;;;;;;39.25;23.52;;;;;;;;;;4926154;29;20130;-94
2024/01/31 10:15:26;;;;;;;34.75;21.23;;;;;;;;;;4924286;29;20118;-86
2024/01/31 10:17:53;;;;;;;36.35;22.02;;;;;;;;;;4943521;29;20039;-86
2024/01/31 10:20:19;;;;;;;39.38;22.42;;;;;;;;;;4943395;29;20040;-79
2024/01/31 10:22:46;;;;;;;46.33;25.55;;;;;;;;;;4943533;29;20024;-85
2024/01/31 10:31:20;;;;;;;38.38;20.50;;;;;;;;;;4933283;29;20050;-84
2024/01/31 10:33:47;;;;;;;35.78;22.67;;;;;;;;;;4924649;29;20021;-84
2024/01/31 10:36:13;;;;;;;37.70;22.10;;;;;;;;;;4924747;29;20028;-84
2024/01/31 10:38:39;;;;;;;37.40;24.30;;;;;;;;;;4925177;29;20130;-85
2024/01/31 10:41:08;;;;;;;36.03;21.05;;;;;;;;;;4943582;29;20027;-84
2024/01/31 10:43:36;;;;;;;33.92;21.13;;;;;;;;;;4914647;29;20040;-84
2024/01/31 10:46:02;;;;;;;32.80;20.17;;;;;;;;;;4925544;29;20358;-84
2024/01/31 10:48:28;;;;;;;32.55;20.35;;;;;;;;;;4925981;29;20104;-84
2024/01/31 10:50:56;;;;;;;35.50;20.42;;;;;;;;;;4919900;29;20098;-85
2024/01/31 10:53:23;;;;;;;35.80;21.23;;;;;;;;;;4913580;29;20036;-85
2024/01/31 10:55:50;;;;;;;32.50;19.75;;;;;;;;;;4925497;29;20107;-84
2024/01/31 10:58:17;;;;;;;32.92;21.00;;;;;;;;;;4908777;29;20330;-84
2024/01/31 11:00:47;;;;;;;30.25;18.88;;;;;;;;;;4938534;29;20027;-83
2024/01/31 11:03:16;;;;;;;28.63;17.40;;;;;;;;;;4943054;29;20366;-85
2024/01/31 11:05:43;;;;;;;26.40;16.77;;;;;;;;;;4943387;29;20027;-83
2024/01/31 11:08:21;;;;;;;28.95;17.08;;;;;;;;;;4942598;29;20039;-84
2024/01/31 11:10:49;;;;;;;27.63;16.27;;;;;;;;;;4924440;29;20048;-84
2024/01/31 11:13:15;;;;;;;24.90;14.45;;;;;;;;;;4924019;29;20450;-84
2024/01/31 11:15:41;;;;;;;22.10;14.52;;;;;;;;;;4924628;29;20036;-84
2024/01/31 11:18:12;;;;;;;24.95;15.40;;;;;;;;;;4924930;29;20068;-87
2024/01/31 11:20:39;;;;;;;28.05;16.23;;;;;;;;;;4932837;29;20031;-83
2024/01/31 11:23:05;;;;;;;26.88;15.73;;;;;;;;;;4926703;29;20430;-84
2024/01/31 11:25:33;;;;;;;23.20;15.35;;;;;;;;;;4915707;29;20072;-88
2024/01/31 11:28:00;;;;;;;24.92;15.15;;;;;;;;;;4942662;29;20477;-84
2024/01/31 11:30:26;;;;;;;22.35;13.98;;;;;;;;;;4926505;29;20027;-84
2024/01/31 11:32:53;;;;;;;22.10;14.25;;;;;;;;;;4938015;29;20034;-84
2024/01/31 11:35:19;;;;;;;24.40;14.93;;;;;;;;;;4919266;29;20131;-84
2024/01/31 11:37:45;;;;;;;24.52;14.30;;;;;;;;;;4930147;29;20024;-83
2024/01/31 11:40:11;;;;;;;24.50;17.17;;;;;;;;;;4923368;29;20076;-83
2024/01/31 11:42:37;;;;;;;26.75;16.38;;;;;;;;;;4906488;29;20127;-83
2024/01/31 11:45:03;;;;;;;22.27;14.13;;;;;;;;;;4906650;29;20040;-84
2024/01/31 11:47:29;;;;;;;22.20;14.05;;;;;;;;;;4922992;29;20020;-83
2024/01/31 11:50:02;;;;;;;22.17;14.32;;;;;;;;;;4915250;29;20036;-83
2024/01/31 11:52:28;;;;;;;27.92;14.32;;;;;;;;;;4925059;29;20510;-83
2024/01/31 11:54:55;;;;;;;26.00;14.27;;;;;;;;;;4913586;29;20084;-83
2024/01/31 11:57:21;;;;;;;23.73;14.48;;;;;;;;;;4923015;29;20060;-83
2024/01/31 11:59:47;;;;;;;25.35;15.95;;;;;;;;;;4922861;29;20411;-84
2024/01/31 12:02:13;;;;;;;32.47;20.25;;;;;;;;;;4914106;29;20032;-84
2024/01/31 12:04:39;;;;;;;25.48;15.93;;;;;;;;;;4942223;29;20032;-84
2024/01/31 12:07:06;;;;;;;22.60;13.90;;;;;;;;;;4932576;29;20038;-83
2024/01/31 12:09:35;;;;;;;24.35;15.38;;;;;;;;;;4913783;29;20418;-84
2024/01/31 12:12:01;;;;;;;26.13;16.42;;;;;;;;;;4940671;29;20352;-84
2024/01/31 12:14:27;;;;;;;24.73;16.17;;;;;;;;;;4937195;29;20031;-83
2024/01/31 12:16:53;;;;;;;26.55;17.48;;;;;;;;;;4941385;29;20036;-83
2024/01/31 12:19:19;;;;;;;32.60;20.20;;;;;;;;;;4941434;29;20043;-84
2024/01/31 12:21:45;;;;;;;25.80;17.17;;;;;;;;;;4941083;29;20115;-84
2024/01/31 12:24:11;;;;;;;25.35;15.98;;;;;;;;;;4940372;29;20062;-84
2024/01/31 12:26:37;;;;;;;23.35;15.90;;;;;;;;;;4938167;29;20028;-84
2024/01/31 12:29:04;;;;;;;44.40;30.63;;;;;;;;;;4927560;29;20027;-84
2024/01/31 12:31:30;;;;;;;29.45;21.15;;;;;;;;;;4940563;29;20035;-83
2024/01/31 12:33:56;;;;;;;24.17;15.10;;;;;;;;;;4909290;29;20443;-85
2024/01/31 12:36:22;;;;;;;22.65;15.60;;;;;;;;;;4912880;29;20048;-84
2024/01/31 12:38:48;;;;;;;22.05;14.82;;;;;;;;;;4919433;29;20082;-84
2024/01/31 12:41:14;;;;;;;24.80;17.25;;;;;;;;;;4939709;29;20027;-84
2024/01/31 12:43:40;;;;;;;27.05;14.80;;;;;;;;;;4917810;29;20028;-84
2024/01/31 12:46:06;;;;;;;25.30;16.10;;;;;;;;;;4923309;29;20123;-84
2024/01/31 12:48:32;;;;;;;22.48;14.50;;;;;;;;;;4912511;29;20040;-83
2024/01/31 12:50:58;;;;;;;21.60;13.80;;;;;;;;;;4937091;29;20028;-84
2024/01/31 12:53:25;;;;;;;19.77;12.50;;;;;;;;;;4926167;29;20485;-85
2024/01/31 12:55:51;;;;;;;18.77;11.35;;;;;;;;;;4925422;29;20028;-84
2024/01/31 12:58:17;;;;;;;17.83;11.48;;;;;;;;;;4909601;29;20023;-84
2024/01/31 13:00:43;;;;;;;18.42;11.30;;;;;;;;;;4924025;29;20031;-83
2024/01/31 13:03:09;;;;;;;21.20;12.35;;;;;;;;;;4924163;29;20115;-83
2024/01/31 13:05:35;;;;;;;23.75;14.57;;;;;;;;;;4940159;29;20023;-83
2024/01/31 13:08:01;;;;;;;18.75;12.07;;;;;;;;;;4927409;29;20025;-84
2024/01/31 13:10:27;;;;;;;20.20;12.63;;;;;;;;;;4905125;29;20028;-84
2024/01/31 13:12:53;;;;;;;18.83;12.52;;;;;;;;;;4924489;29;20090;-83
2024/01/31 13:15:23;;;;;;;21.70;12.60;;;;;;;;;;4940789;29;20410;-84
2024/01/31 13:17:49;;;;;;;23.50;13.48;;;;;;;;;;4909268;29;20430;-84
2024/01/31 13:20:17;;;;;;;26.88;13.75;;;;;;;;;;4938918;29;20160;-85
2024/01/31 13:22:43;;;;;;;22.15;13.13;;;;;;;;;;4923589;29;20493;-83
2024/01/31 13:25:09;;;;;;;27.92;16.98;;;;;;;;;;4939968;29;20083;-84
2024/01/31 13:27:35;;;;;;;20.17;13.48;;;;;;;;;;4940274;29;20039;-84
2024/01/31 13:30:01;;;;;;;34.03;19.73;;;;;;;;;;4940523;29;20122;-84
2024/01/31 13:32:27;;;;;;;36.92;19.65;;;;;;;;;;4940406;29;20035;-84
2024/01/31 13:34:53;;;;;;;25.98;15.13;;;;;;;;;;4923276;29;20048;-84
2024/01/31 13:37:19;;;;;;;27.92;17.10;;;;;;;;;;4922950;29;20038;-84
2024/01/31 13:39:45;;;;;;;30.80;18.98;;;;;;;;;;4940061;29;20393;-84
2024/01/31 13:42:11;;;;;;;32.30;19.30;;;;;;;;;;4939818;29;20111;-83
2024/01/31 13:44:37;;;;;;;29.70;18.95;;;;;;;;;;4939098;29;20028;-83
2024/01/31 13:47:03;;;;;;;26.45;18.20;;;;;;;;;;4937213;29;20106;-83
2024/01/31 13:49:33;;;;;;;27.63;17.13;;;;;;;;;;4935623;29;20032;-83
2024/01/31 13:51:59;;;;;;;27.17;16.40;;;;;;;;;;4939584;29;20039;-83
2024/01/31 13:54:25;;;;;;;30.38;17.13;;;;;;;;;;4923188;29;20031;-82
2024/01/31 13:56:51;;;;;;;24.20;16.00;;;;;;;;;;4939963;29;20032;-83
2024/01/31 13:59:17;;;;;;;31.88;18.83;;;;;;;;;;4939709;29;20023;-81
2024/01/31 14:01:43;;;;;;;31.90;18.50;;;;;;;;;;4939802;29;20160;-82
2024/01/31 14:04:09;;;;;;;27.35;17.70;;;;;;;;;;4939774;29;20064;-82
2024/01/31 14:06:35;;;;;;;31.88;19.20;;;;;;;;;;4939796;29;20035;-83
2024/01/31 14:09:01;;;;;;;29.80;17.77;;;;;;;;;;4939759;29;20427;-81
2024/01/31 14:11:28;;;;;;;25.25;17.30;;;;;;;;;;4939889;29;20028;-83
2024/01/31 14:13:56;;;;;;;25.60;17.15;;;;;;;;;;4923125;29;20048;-83
2024/01/31 14:16:22;;;;;;;28.02;18.05;;;;;;;;;;4939901;29;20063;-83
2024/01/31 14:18:48;;;;;;;26.20;16.75;;;;;;;;;;4939434;29;20091;-83
2024/01/31 14:21:15;;;;;;;29.98;16.88;;;;;;;;;;4939685;29;20054;-82
2024/01/31 14:23:41;;;;;;;32.45;19.55;;;;;;;;;;4939474;29;20056;-82
2024/01/31 14:26:07;;;;;;;172.75;40.35;;;;;;;;;;4939904;29;20036;-83
2024/01/31 14:28:33;;;;;;;112.80;33.30;;;;;;;;;;4939584;29;20024;-83
2024/01/31 14:30:59;;;;;;;58.55;23.10;;;;;;;;;;4939747;29;20034;-83
2024/01/31 14:33:25;;;;;;;32.38;17.98;;;;;;;;;;4922792;29;20047;-83
2024/01/31 14:35:51;;;;;;;27.40;17.33;;;;;;;;;;4939704;29;20044;-82
2024/01/31 14:38:17;;;;;;;29.92;19.23;;;;;;;;;;4927240;29;20051;-83
2024/01/31 14:40:43;;;;;;;33.63;19.38;;;;;;;;;;4922172;29;20035;-81
2024/01/31 14:43:09;;;;;;;29.60;17.30;;;;;;;;;;4921785;29;20415;-83
2024/01/31 14:45:35;;;;;;;33.75;19.55;;;;;;;;;;4939181;29;20019;-82
2024/01/31 14:48:02;;;;;;;44.72;26.75;;;;;;;;;;4939277;29;20051;-83
2024/01/31 14:50:28;;;;;;;31.40;19.10;;;;;;;;;;4904846;29;20458;-83
2024/01/31 14:52:54;;;;;;;33.47;18.17;;;;;;;;;;4919543;29;20042;-83
2024/01/31 14:55:20;;;;;;;31.52;18.40;;;;;;;;;;4939493;29;20208;-83
2024/01/31 14:57:46;;;;;;;36.03;21.10;;;;;;;;;;4939445;29;20111;-82
2024/01/31 15:00:12;;;;;;;39.47;22.15;;;;;;;;;;4922547;29;20514;-83
2024/01/31 15:02:38;;;;;;;38.67;22.35;;;;;;;;;;4939159;29;20075;-83
2024/01/31 15:05:05;;;;;;;36.38;20.33;;;;;;;;;;4942576;29;20407;-92
2024/01/31 15:07:31;;;;;;;39.97;21.63;;;;;;;;;;4926742;29;20051;-92
2024/01/31 15:09:57;;;;;;;40.53;22.80;;;;;;;;;;4926304;29;20039;-93
2024/01/31 15:12:23;;;;;;;40.72;22.23;;;;;;;;;;4926335;29;20027;-85
2024/01/31 15:14:49;;;;;;;45.70;26.65;;;;;;;;;;4925873;29;20075;-85
2024/01/31 15:17:15;;;;;;;46.08;28.85;;;;;;;;;;4926138;29;20437;-85
2024/01/31 15:19:47;;;;;;;34.95;22.73;;;;;;;;;;4943072;29;20028;-89
2024/01/31 15:22:16;;;;;;;39.40;21.13;;;;;;;;;;4916501;29;20132;-85
2024/01/31 15:24:43;;;;;;;37.53;21.55;;;;;;;;;;4942670;29;20122;-85
2024/01/31 15:27:09;;;;;;;45.05;24.50;;;;;;;;;;4942496;29;20055;-85
2024/01/31 15:29:35;;;;;;;42.67;22.88;;;;;;;;;;4926105;29;20028;-85
2024/01/31 15:32:01;;;;;;;36.10;19.60;;;;;;;;;;4942478;29;20098;-85
2024/01/31 15:34:27;;;;;;;38.20;18.45;;;;;;;;;;4942934;29;20359;-85
2024/01/31 15:36:56;;;;;;;29.17;18.25;;;;;;;;;;4925354;29;20056;-85
2024/01/31 15:39:22;;;;;;;37.08;21.67;;;;;;;;;;4930572;29;20047;-86
2024/01/31 15:41:48;;;;;;;42.63;24.77;;;;;;;;;;4907263;29;20123;-85
2024/01/31 15:44:15;;;;;;;61.17;32.55;;;;;;;;;;4908191;29;20060;-85
2024/01/31 15:46:41;;;;;;;66.88;37.58;;;;;;;;;;4923425;29;20062;-86
2024/01/31 15:49:07;;;;;;;61.90;32.90;;;;;;;;;;4923363;29;20038;-86
2024/01/31 15:51:39;;;;;;;44.95;27.42;;;;;;;;;;4923612;29;20107;-85
2024/01/31 15:54:06;;;;;;;47.00;26.10;;;;;;;;;;4913778;29;20039;-85
2024/01/31 15:56:32;;;;;;;39.88;21.25;;;;;;;;;;4942280;29;20036;-85
2024/01/31 15:58:58;;;;;;;37.20;21.45;;;;;;;;;;4924957;29;20050;-86
2024/01/31 16:01:24;;;;;;;40.30;22.33;;;;;;;;;;4942476;29;20078;-85
2024/01/31 16:03:53;;;;;;;46.00;25.27;;;;;;;;;;4924944;29;20131;-87
2024/01/31 16:06:19;;;;;;;53.97;28.50;;;;;;;;;;4915326;29;20059;-87
2024/01/31 16:08:45;;;;;;;61.22;32.83;;;;;;;;;;4923373;29;20072;-86
2024/01/31 16:11:13;;;;;;;69.32;36.80;;;;;;;;;;4932482;29;20027;-86
2024/01/31 16:13:39;;;;;;;88.25;47.15;;;;;;;;;;4937340;29;20039;-85
2024/01/31 16:16:05;;;;;;;92.95;55.85;;;;;;;;;;4906119;29;20075;-86
2024/01/31 16:18:33;;;;;;;95.55;54.55;;;;;;;;;;4931216;29;20047;-86
2024/01/31 16:20:59;;;;;;;75.40;46.60;;;;;;;;;;4941911;29;20040;-87
2024/01/31 16:23:25;;;;;;;77.40;46.92;;;;;;;;;;4925067;29;20016;-86
2024/01/31 16:25:51;;;;;;;77.40;46.40;;;;;;;;;;4933016;29;20391;-86
2024/01/31 16:28:17;;;;;;;76.65;42.65;;;;;;;;;;4933004;29;20091;-87
2024/01/31 16:30:44;;;;;;;75.80;42.40;;;;;;;;;;4941310;29;20038;-87
2024/01/31 16:33:10;;;;;;;81.40;43.75;;;;;;;;;;4934401;29;21136;-86
2024/01/31 16:35:36;;;;;;;72.70;43.88;;;;;;;;;;4924874;29;20032;-87
2024/01/31 16:38:02;;;;;;;83.85;43.75;;;;;;;;;;4941946;29;20035;-88
2024/01/31 16:40:31;;;;;;;77.68;42.25;;;;;;;;;;4941546;29;20403;-86
2024/01/31 16:42:57;;;;;;;78.95;44.13;;;;;;;;;;4924834;29;20067;-87
2024/01/31 16:45:23;;;;;;;78.50;44.67;;;;;;;;;;4941452;29;20027;-86
2024/01/31 16:47:49;;;;;;;84.63;44.40;;;;;;;;;;4941890;29;20402;-87
2024/01/31 16:50:15;;;;;;;87.60;46.15;;;;;;;;;;4924502;29;20039;-85
2024/01/31 16:52:41;;;;;;;82.13;46.35;;;;;;;;;;4924599;29;20039;-87
2024/01/31 16:55:11;;;;;;;90.50;45.70;;;;;;;;;;4941442;29;20023;-86
2024/01/31 16:57:38;;;;;;;83.68;44.90;;;;;;;;;;4924548;29;20362;-87
2024/01/31 17:00:05;;;;;;;83.28;46.28;;;;;;;;;;4924516;29;20075;-87
2024/01/31 17:02:34;;;;;;;83.28;44.80;;;;;;;;;;4941177;29;20102;-87
2024/01/31 17:05:00;;;;;;;84.03;44.45;;;;;;;;;;4941253;29;20371;-87
2024/01/31 17:07:26;;;;;;;79.50;44.53;;;;;;;;;;4941169;29;20020;-87
2024/01/31 17:09:52;;;;;;;74.90;43.00;;;;;;;;;;4924351;29;20019;-87
2024/01/31 17:12:18;;;;;;;79.65;42.70;;;;;;;;;;4923957;29;20023;-88
2024/01/31 17:14:44;;;;;;;94.13;47.22;;;;;;;;;;4941075;29;20068;-86
2024/01/31 17:17:10;;;;;;;129.75;64.72;;;;;;;;;;4940707;28;20059;-87
2024/01/31 17:19:36;;;;;;;215.38;107.28;;;;;;;;;;4941124;29;20103;-86
2024/01/31 17:22:02;;;;;;;180.13;88.57;;;;;;;;;;4923847;29;20039;-87
2024/01/31 17:24:28;;;;;;;217.43;106.28;;;;;;;;;;4924044;29;20119;-87
2024/01/31 17:26:55;;;;;;;151.32;73.80;;;;;;;;;;4940213;29;20048;-87
2024/01/31 17:29:21;;;;;;;126.85;62.95;;;;;;;;;;4940642;29;20066;-86
2024/01/31 17:31:47;;;;;;;117.72;58.47;;;;;;;;;;4923964;29;20359;-87
2024/01/31 17:34:13;;;;;;;123.35;60.42;;;;;;;;;;4940759;29;20434;-87
2024/01/31 17:36:40;;;;;;;114.50;58.55;;;;;;;;;;4940552;29;20035;-87
2024/01/31 17:39:06;;;;;;;110.30;55.22;;;;;;;;;;4923855;29;20422;-86
2024/01/31 17:41:32;;;;;;;114.70;55.63;;;;;;;;;;4940328;29;20039;-87
2024/01/31 17:43:58;;;;;;;117.63;56.78;;;;;;;;;;4940616;29;20502;-87
2024/01/31 17:46:24;;;;;;;111.82;53.45;;;;;;;;;;4923627;29;20067;-87
2024/01/31 17:48:50;;;;;;;138.93;64.35;;;;;;;;;;4940287;29;20415;-87
2024/01/31 17:51:16;;;;;;;191.77;85.07;;;;;;;;;;4940803;29;20091;-88
2024/01/31 17:53:43;;;;;;;169.80;78.13;;;;;;;;;;4923916;29;20414;-87
2024/01/31 17:56:14;;;;;;;164.32;76.40;;;;;;;;;;4940112;29;20110;-87
2024/01/31 17:58:40;;;;;;;174.57;77.67;;;;;;;;;;4940413;29;20051;-87
2024/01/31 18:01:07;;;;;;;144.15;67.65;;;;;;;;;;4940006;29;20044;-87
2024/01/31 18:03:34;;;;;;;140.15;69.35;;;;;;;;;;4940327;29;20111;-86
2024/01/31 18:06:00;;;;;;;145.60;69.55;;;;;;;;;;4940225;29;20026;-87
2024/01/31 18:08:26;;;;;;;143.35;68.03;;;;;;;;;;4940319;29;20024;-87
2024/01/31 18:10:52;;;;;;;130.60;67.28;;;;;;;;;;4940247;29;20437;-87
2024/01/31 18:13:18;;;;;;;127.28;63.92;;;;;;;;;;4923569;29;20031;-87
2024/01/31 18:15:44;;;;;;;117.53;59.20;;;;;;;;;;4940118;29;20032;-86
2024/01/31 18:18:10;;;;;;;89.85;46.30;;;;;;;;;;4940002;29;20051;-88
2024/01/31 18:20:36;;;;;;;102.57;51.55;;;;;;;;;;4940223;29;20087;-87
2024/01/31 18:23:02;;;;;;;108.93;52.63;;;;;;;;;;4931649;29;20028;-87
2024/01/31 18:25:28;;;;;;;115.88;54.40;;;;;;;;;;4935596;29;20034;-86
2024/01/31 18:27:55;;;;;;;114.85;53.58;;;;;;;;;;4939982;29;20016;-87
2024/01/31 18:30:21;;;;;;;115.10;53.72;;;;;;;;;;4940382;29;20079;-86
2024/01/31 18:32:48;;;;;;;118.93;56.67;;;;;;;;;;4940289;29;20028;-87
2024/01/31 18:35:14;;;;;;;110.15;54.90;;;;;;;;;;4939873;29;20031;-87
2024/01/31 18:37:40;;;;;;;195.23;77.15;;;;;;;;;;4941199;29;20047;-86
2024/01/31 18:40:06;;;;;;;163.40;68.88;;;;;;;;;;4944138;29;20103;-87
2024/01/31 18:42:32;;;;;;;156.68;67.10;;;;;;;;;;4926976;29;20502;-87
2024/01/31 18:44:58;;;;;;;178.38;72.80;;;;;;;;;;4943729;29;20419;-88
2024/01/31 18:47:24;;;;;;;190.07;75.78;;;;;;;;;;4919804;29;20028;-87
2024/01/31 18:49:51;;;;;;;181.95;74.97;;;;;;;;;;4925022;29;20064;-87
2024/01/31 18:52:17;;;;;;;196.98;78.28;;;;;;;;;;4935271;29;20118;-88
2024/01/31 18:54:43;;;;;;;200.57;79.07;;;;;;;;;;4943817;29;20451;-87
2024/01/31 19:00:26;;;;;;;171.38;70.93;;;;;;;;;;4943833;29;20050;-88
2024/01/31 19:02:52;;;;;;;183.10;74.85;;;;;;;;;;4926265;29;20035;-87
2024/01/31 19:05:18;;;;;;;165.05;74.28;;;;;;;;;;4943408;29;20027;-87
2024/01/31 19:07:44;;;;;;;160.00;71.78;;;;;;;;;;4936013;29;20078;-87
2024/01/31 19:10:10;;;;;;;152.93;70.22;;;;;;;;;;4936838;29;20039;-87
2024/01/31 19:15:40;;;;;;;196.20;81.22;;;;;;;;;;4939725;29;20131;-87
2024/01/31 19:18:06;;;;;;;169.57;75.85;;;;;;;;;;4933898;29;20343;-87
2024/01/31 19:20:33;;;;;;;180.75;89.65;;;;;;;;;;4935572;29;20036;-87
2024/01/31 19:22:59;;;;;;;164.90;79.68;;;;;;;;;;4942611;29;20023;-87
2024/01/31 19:25:25;;;;;;;160.90;76.50;;;;;;;;;;4942898;29;20028;-88
2024/01/31 19:27:52;;;;;;;171.10;76.75;;;;;;;;;;4926313;29;20036;-87
2024/01/31 19:30:21;;;;;;;161.68;75.75;;;;;;;;;;4942901;29;20042;-88
2024/01/31 19:32:47;;;;;;;149.88;72.53;;;;;;;;;;4925341;29;20379;-87
2024/01/31 19:35:13;;;;;;;164.85;74.10;;;;;;;;;;4925786;29;20055;-91
2024/01/31 19:37:40;;;;;;;157.85;75.60;;;;;;;;;;4925760;29;20322;-90
2024/01/31 19:40:06;;;;;;;170.23;79.80;;;;;;;;;;4925633;29;20038;-90
2024/01/31 19:45:35;;;;;;;189.93;85.13;;;;;;;;;;4934193;29;20067;-87
2024/01/31 19:48:01;;;;;;;205.63;91.25;;;;;;;;;;4942390;29;20075;-88
2024/01/31 19:50:28;;;;;;;223.20;94.85;;;;;;;;;;4926159;29;20063;-91
2024/01/31 19:52:54;;;;;;;234.77;99.40;;;;;;;;;;4923337;29;20044;-87
2024/01/31 19:55:20;;;;;;;227.98;102.30;;;;;;;;;;4906913;29;20095;-88
2024/01/31 19:57:46;;;;;;;271.52;119.63;;;;;;;;;;4906484;29;20054;-88
2024/01/31 20:00:14;;;;;;;325.48;142.95;;;;;;;;;;4906531;29;20312;-88
2024/01/31 20:02:40;;;;;;;296.15;132.75;;;;;;;;;;4923380;29;20099;-89
2024/01/31 20:05:06;;;;;;;316.10;140.40;;;;;;;;;;4923152;29;20032;-89
2024/01/31 20:07:32;;;;;;;333.42;151.20;;;;;;;;;;4906262;29;20327;-88
2024/01/31 20:09:58;;;;;;;355.75;163.80;;;;;;;;;;4924568;29;20111;-88
2024/01/31 20:12:24;;;;;;;393.63;173.27;;;;;;;;;;4925318;29;20039;-87
2024/01/31 20:14:50;;;;;;;409.02;184.90;;;;;;;;;;4925517;29;20036;-88
2024/01/31 20:17:16;;;;;;;401.00;181.45;;;;;;;;;;4925243;29;20075;-87
2024/01/31 20:19:44;;;;;;;397.40;180.75;;;;;;;;;;4925083;29;20019;-87
2024/01/31 20:22:10;;;;;;;412.80;186.05;;;;;;;;;;4941602;29;20035;-88
2024/01/31 20:24:38;;;;;;;423.13;188.05;;;;;;;;;;4941729;29;20024;-88
2024/01/31 20:27:06;;;;;;;400.80;184.75;;;;;;;;;;4941842;29;20031;-87
2024/01/31 20:29:32;;;;;;;414.98;188.57;;;;;;;;;;4924965;29;20048;-88
2024/01/31 20:32:00;;;;;;;427.00;194.15;;;;;;;;;;4941952;29;20028;-87
2024/01/31 20:34:32;;;;;;;424.45;194.45;;;;;;;;;;4941735;29;20079;-88
2024/01/31 20:36:58;;;;;;;;;;;;;;;;;;4926019;29;20083;-88
2024/01/31 20:39:24;;;;;;;440.27;197.57;;;;;;;;;;4941623;29;19907;-87
2024/01/31 20:45:08;;;;;;;455.83;210.18;;;;;;;;;;4941883;29;20343;-88
2024/01/31 20:47:34;;;;;;;456.30;220.18;;;;;;;;;;4924540;29;20055;-87
2024/01/31 20:50:00;;;;;;;444.65;215.00;;;;;;;;;;4933046;29;20025;-88
2024/01/31 20:52:26;;;;;;;459.10;219.13;;;;;;;;;;4914571;29;20035;-88
2024/01/31 20:54:53;;;;;;;456.63;221.98;;;;;;;;;;4929937;29;20026;-88
2024/01/31 20:57:20;;;;;;;472.48;230.70;;;;;;;;;;4922260;29;20032;-88
2024/01/31 20:59:47;;;;;;;487.40;241.20;;;;;;;;;;4905660;29;20035;-87
2024/01/31 21:02:14;;;;;;;533.80;271.40;;;;;;;;;;4921390;29;20079;-88
2024/01/31 21:04:40;;;;;;;544.67;277.88;;;;;;;;;;4905420;29;20035;-87
2024/01/31 21:07:06;;;;;;;573.88;299.30;;;;;;;;;;4917410;29;20048;-86
2024/01/31 21:09:32;;;;;;;607.17;317.67;;;;;;;;;;4922294;29;20331;-86
2024/01/31 21:11:58;;;;;;;616.08;322.45;;;;;;;;;;4922040;29;20036;-87
2024/01/31 21:14:27;;;;;;;622.33;329.38;;;;;;;;;;4922201;29;20032;-87
2024/01/31 21:16:53;;;;;;;638.83;335.83;;;;;;;;;;4930012;29;20032;-87
2024/01/31 21:42:08;;;;;;;773.13;375.40;;;;;;;;;;5044492;23;20070;-92
2024/01/31 21:53:10;;;;;;;771.33;389.95;;;;;;;;;;5055657;23;20085;-91
2024/01/31 22:30:26;;;;;;;433.60;203.65;;;;;;;;;;5035172;23;19921;-90
